sensor_id;sensor_type;location;lat;lon;timestamp;P1;durP1;ratioP1;P2;durP2;ratioP2
68178;SDS011;69812;42.632;23.440;2023-10-09T00:00:34;7.85;;;2.00;;
68178;SDS011;69812;42.632;23.440;2023-10-09T00:03:05;8.13;;;1.80;;
68178;SDS011;69812;42.632;23.440;2023-10-09T00:05:32;6.65;;;1.83;;
68178;SDS011;69812;42.632;23.440;2023-10-09T00:08:10;8.70;;;2.20;;
68178;SDS011;69812;42.632;23.440;2023-10-09T00:10:58;8.63;;;1.67;;
68178;SDS011;69812;42.632;23.440;2023-10-09T00:13:38;7.38;;;1.70;;
68178;SDS011;69812;42.632;23.440;2023-10-09T00:16:14;4.32;;;1.45;;
68178;SDS011;69812;42.632;23.440;2023-10-09T00:18:40;3.50;;;1.38;;
68178;SDS011;69812;42.632;23.440;2023-10-09T00:21:17;7.22;;;1.60;;
68178;SDS011;69812;42.632;23.440;2023-10-09T00:23:47;3.80;;;1.65;;
68178;SDS011;69812;42.632;23.440;2023-10-09T00:26:24;6.43;;;1.80;;
68178;SDS011;69812;42.632;23.440;2023-10-09T00:28:50;6.97;;;1.70;;
68178;SDS011;69812;42.632;23.440;2023-10-09T00:31:19;4.32;;;1.70;;
68178;SDS011;69812;42.632;23.440;2023-10-09T00:33:58;4.72;;;1.58;;
68178;SDS011;69812;42.632;23.440;2023-10-09T00:36:30;6.43;;;1.67;;
68178;SDS011;69812;42.632;23.440;2023-10-09T00:38:57;6.13;;;1.42;;
68178;SDS011;69812;42.632;23.440;2023-10-09T00:41:26;7.57;;;1.48;;
68178;SDS011;69812;42.632;23.440;2023-10-09T00:43:54;5.85;;;1.40;;
68178;SDS011;69812;42.632;23.440;2023-10-09T00:46:24;2.35;;;1.30;;
68178;SDS011;69812;42.632;23.440;2023-10-09T00:48:52;3.05;;;1.52;;
68178;SDS011;69812;42.632;23.440;2023-10-09T00:51:20;5.28;;;1.42;;
68178;SDS011;69812;42.632;23.440;2023-10-09T00:53:51;6.75;;;1.85;;
68178;SDS011;69812;42.632;23.440;2023-10-09T00:56:19;4.80;;;1.80;;
68178;SDS011;69812;42.632;23.440;2023-10-09T00:58:57;7.40;;;1.70;;
68178;SDS011;69812;42.632;23.440;2023-10-09T01:01:45;2.88;;;1.10;;
68178;SDS011;69812;42.632;23.440;2023-10-09T01:04:29;6.82;;;1.38;;
68178;SDS011;69812;42.632;23.440;2023-10-09T01:07:01;5.55;;;1.70;;
68178;SDS011;69812;42.632;23.440;2023-10-09T01:09:37;5.05;;;1.80;;
68178;SDS011;69812;42.632;23.440;2023-10-09T01:12:09;4.05;;;1.10;;
68178;SDS011;69812;42.632;23.440;2023-10-09T01:14:46;1.63;;;0.90;;
68178;SDS011;69812;42.632;23.440;2023-10-09T01:17:21;4.50;;;1.40;;
68178;SDS011;69812;42.632;23.440;2023-10-09T01:22:29;2.63;;;1.42;;
68178;SDS011;69812;42.632;23.440;2023-10-09T01:24:54;3.17;;;1.13;;
68178;SDS011;69812;42.632;23.440;2023-10-09T01:27:20;4.50;;;1.50;;
68178;SDS011;69812;42.632;23.440;2023-10-09T01:29:49;4.72;;;1.40;;
68178;SDS011;69812;42.632;23.440;2023-10-09T01:32:16;3.08;;;1.48;;
68178;SDS011;69812;42.632;23.440;2023-10-09T01:34:43;2.05;;;1.17;;
68178;SDS011;69812;42.632;23.440;2023-10-09T01:37:14;5.57;;;1.73;;
68178;SDS011;69812;42.632;23.440;2023-10-09T01:39:46;5.32;;;1.40;;
68178;SDS011;69812;42.632;23.440;2023-10-09T01:42:16;7.05;;;1.42;;
68178;SDS011;69812;42.632;23.440;2023-10-09T01:45:01;1.75;;;0.93;;
68178;SDS011;69812;42.632;23.440;2023-10-09T01:47:46;5.22;;;1.60;;
68178;SDS011;69812;42.632;23.440;2023-10-09T01:50:19;2.67;;;1.20;;
68178;SDS011;69812;42.632;23.440;2023-10-09T01:52:49;2.92;;;1.17;;
68178;SDS011;69812;42.632;23.440;2023-10-09T01:57:58;3.55;;;1.20;;
68178;SDS011;69812;42.632;23.440;2023-10-09T02:00:44;5.05;;;1.20;;
68178;SDS011;69812;42.632;23.440;2023-10-09T02:03:14;2.95;;;1.38;;
68178;SDS011;69812;42.632;23.440;2023-10-09T02:05:48;2.72;;;1.30;;
68178;SDS011;69812;42.632;23.440;2023-10-09T02:08:15;5.25;;;1.30;;
68178;SDS011;69812;42.632;23.440;2023-10-09T02:10:46;2.67;;;1.30;;
68178;SDS011;69812;42.632;23.440;2023-10-09T02:13:13;3.50;;;1.85;;
68178;SDS011;69812;42.632;23.440;2023-10-09T02:15:55;2.38;;;1.05;;
68178;SDS011;69812;42.632;23.440;2023-10-09T02:18:23;5.30;;;1.20;;
68178;SDS011;69812;42.632;23.440;2023-10-09T02:20:50;4.07;;;1.40;;
68178;SDS011;69812;42.632;23.440;2023-10-09T02:23:41;4.55;;;1.50;;
68178;SDS011;69812;42.632;23.440;2023-10-09T02:26:13;2.38;;;1.08;;
68178;SDS011;69812;42.632;23.440;2023-10-09T02:28:53;2.08;;;1.15;;
68178;SDS011;69812;42.632;23.440;2023-10-09T02:31:29;4.70;;;1.42;;
68178;SDS011;69812;42.632;23.440;2023-10-09T02:34:08;2.90;;;1.10;;
68178;SDS011;69812;42.632;23.440;2023-10-09T02:36:35;6.28;;;1.38;;
68178;SDS011;69812;42.632;23.440;2023-10-09T02:39:06;2.50;;;1.23;;
68178;SDS011;69812;42.632;23.440;2023-10-09T02:41:46;1.85;;;0.90;;
68178;SDS011;69812;42.632;23.440;2023-10-09T02:44:14;3.35;;;1.10;;
68178;SDS011;69812;42.632;23.440;2023-10-09T02:46:41;2.33;;;1.10;;
68178;SDS011;69812;42.632;23.440;2023-10-09T02:49:06;3.70;;;1.20;;
68178;SDS011;69812;42.632;23.440;2023-10-09T02:51:34;4.28;;;1.25;;
68178;SDS011;69812;42.632;23.440;2023-10-09T02:54:06;2.63;;;1.20;;
68178;SDS011;69812;42.632;23.440;2023-10-09T02:56:51;4.75;;;1.52;;
68178;SDS011;69812;42.632;23.440;2023-10-09T02:59:43;4.15;;;1.30;;
68178;SDS011;69812;42.632;23.440;2023-10-09T03:02:10;7.15;;;1.20;;
68178;SDS011;69812;42.632;23.440;2023-10-09T03:04:36;2.35;;;1.20;;
68178;SDS011;69812;42.632;23.440;2023-10-09T03:07:04;2.33;;;1.13;;
68178;SDS011;69812;42.632;23.440;2023-10-09T03:09:29;4.28;;;1.02;;
68178;SDS011;69812;42.632;23.440;2023-10-09T03:12:02;2.25;;;1.25;;
68178;SDS011;69812;42.632;23.440;2023-10-09T03:14:33;4.20;;;1.42;;
68178;SDS011;69812;42.632;23.440;2023-10-09T03:17:03;3.05;;;1.17;;
68178;SDS011;69812;42.632;23.440;2023-10-09T03:19:30;3.60;;;0.95;;
68178;SDS011;69812;42.632;23.440;2023-10-09T03:22:02;4.43;;;1.10;;
68178;SDS011;69812;42.632;23.440;2023-10-09T03:24:35;3.33;;;0.98;;
68178;SDS011;69812;42.632;23.440;2023-10-09T03:27:01;1.95;;;0.90;;
68178;SDS011;69812;42.632;23.440;2023-10-09T03:29:27;3.95;;;0.95;;
68178;SDS011;69812;42.632;23.440;2023-10-09T03:31:53;5.60;;;1.05;;
68178;SDS011;69812;42.632;23.440;2023-10-09T03:34:20;2.05;;;0.98;;
68178;SDS011;69812;42.632;23.440;2023-10-09T03:36:46;2.72;;;0.98;;
68178;SDS011;69812;42.632;23.440;2023-10-09T03:39:13;2.75;;;0.70;;
68178;SDS011;69812;42.632;23.440;2023-10-09T03:41:57;2.97;;;1.00;;
68178;SDS011;69812;42.632;23.440;2023-10-09T03:44:23;2.03;;;1.20;;
68178;SDS011;69812;42.632;23.440;2023-10-09T03:46:54;7.45;;;1.00;;
68178;SDS011;69812;42.632;23.440;2023-10-09T03:49:19;1.27;;;0.88;;
68178;SDS011;69812;42.632;23.440;2023-10-09T03:51:50;3.10;;;0.80;;
68178;SDS011;69812;42.632;23.440;2023-10-09T03:54:16;2.03;;;0.77;;
68178;SDS011;69812;42.632;23.440;2023-10-09T03:56:48;2.05;;;0.63;;
68178;SDS011;69812;42.632;23.440;2023-10-09T03:59:20;2.33;;;0.90;;
68178;SDS011;69812;42.632;23.440;2023-10-09T04:01:46;2.42;;;0.85;;
68178;SDS011;69812;42.632;23.440;2023-10-09T04:04:18;1.70;;;0.85;;
68178;SDS011;69812;42.632;23.440;2023-10-09T04:06:47;2.20;;;0.80;;
68178;SDS011;69812;42.632;23.440;2023-10-09T04:09:13;2.28;;;0.73;;
68178;SDS011;69812;42.632;23.440;2023-10-09T04:11:45;3.33;;;0.73;;
68178;SDS011;69812;42.632;23.440;2023-10-09T04:14:22;2.67;;;0.80;;
68178;SDS011;69812;42.632;23.440;2023-10-09T04:17:00;1.35;;;0.75;;
68178;SDS011;69812;42.632;23.440;2023-10-09T04:19:29;3.00;;;0.90;;
68178;SDS011;69812;42.632;23.440;2023-10-09T04:22:03;3.03;;;0.85;;
68178;SDS011;69812;42.632;23.440;2023-10-09T04:24:50;1.67;;;0.80;;
68178;SDS011;69812;42.632;23.440;2023-10-09T04:27:16;1.88;;;0.65;;
68178;SDS011;69812;42.632;23.440;2023-10-09T04:29:42;3.67;;;0.90;;
68178;SDS011;69812;42.632;23.440;2023-10-09T04:32:12;4.22;;;0.90;;
68178;SDS011;69812;42.632;23.440;2023-10-09T04:34:41;1.58;;;0.77;;
68178;SDS011;69812;42.632;23.440;2023-10-09T04:37:14;1.08;;;0.90;;
68178;SDS011;69812;42.632;23.440;2023-10-09T04:39:49;0.88;;;0.70;;
68178;SDS011;69812;42.632;23.440;2023-10-09T04:42:35;2.92;;;0.65;;
68178;SDS011;69812;42.632;23.440;2023-10-09T04:45:05;3.33;;;0.98;;
68178;SDS011;69812;42.632;23.440;2023-10-09T04:47:32;3.33;;;1.10;;
68178;SDS011;69812;42.632;23.440;2023-10-09T04:50:04;2.35;;;0.80;;
68178;SDS011;69812;42.632;23.440;2023-10-09T04:52:39;4.78;;;0.90;;
68178;SDS011;69812;42.632;23.440;2023-10-09T04:55:05;2.33;;;0.90;;
68178;SDS011;69812;42.632;23.440;2023-10-09T04:57:45;2.38;;;0.88;;
68178;SDS011;69812;42.632;23.440;2023-10-09T05:02:59;1.55;;;0.88;;
68178;SDS011;69812;42.632;23.440;2023-10-09T05:05:37;2.03;;;0.82;;
68178;SDS011;69812;42.632;23.440;2023-10-09T05:08:15;2.42;;;1.25;;
68178;SDS011;69812;42.632;23.440;2023-10-09T05:10:48;1.27;;;0.60;;
68178;SDS011;69812;42.632;23.440;2023-10-09T05:13:23;4.15;;;1.00;;
68178;SDS011;69812;42.632;23.440;2023-10-09T05:16:21;3.30;;;0.95;;
68178;SDS011;69812;42.632;23.440;2023-10-09T05:18:47;2.75;;;1.00;;
68178;SDS011;69812;42.632;23.440;2023-10-09T05:21:40;1.15;;;0.80;;
68178;SDS011;69812;42.632;23.440;2023-10-09T05:24:08;3.60;;;0.82;;
68178;SDS011;69812;42.632;23.440;2023-10-09T05:26:37;1.70;;;0.55;;
68178;SDS011;69812;42.632;23.440;2023-10-09T05:29:12;1.67;;;0.70;;
68178;SDS011;69812;42.632;23.440;2023-10-09T05:32:00;1.38;;;0.88;;
68178;SDS011;69812;42.632;23.440;2023-10-09T05:34:38;1.55;;;0.63;;
68178;SDS011;69812;42.632;23.440;2023-10-09T05:37:23;1.48;;;0.63;;
68178;SDS011;69812;42.632;23.440;2023-10-09T05:39:58;1.60;;;0.70;;
68178;SDS011;69812;42.632;23.440;2023-10-09T05:42:34;1.25;;;0.70;;
68178;SDS011;69812;42.632;23.440;2023-10-09T05:45:10;1.80;;;0.73;;
68178;SDS011;69812;42.632;23.440;2023-10-09T05:50:24;1.52;;;0.70;;
68178;SDS011;69812;42.632;23.440;2023-10-09T05:52:50;5.65;;;0.73;;
68178;SDS011;69812;42.632;23.440;2023-10-09T05:55:17;1.88;;;0.60;;
68178;SDS011;69812;42.632;23.440;2023-10-09T05:58:01;1.45;;;0.52;;
68178;SDS011;69812;42.632;23.440;2023-10-09T06:00:45;3.42;;;0.63;;
68178;SDS011;69812;42.632;23.440;2023-10-09T06:03:29;2.22;;;0.70;;
68178;SDS011;69812;42.632;23.440;2023-10-09T06:06:13;1.67;;;0.63;;
68178;SDS011;69812;42.632;23.440;2023-10-09T06:08:58;2.17;;;0.70;;
68178;SDS011;69812;42.632;23.440;2023-10-09T06:12:00;1.33;;;0.68;;
68178;SDS011;69812;42.632;23.440;2023-10-09T06:14:44;1.88;;;0.68;;
68178;SDS011;69812;42.632;23.440;2023-10-09T06:17:22;3.80;;;0.82;;
68178;SDS011;69812;42.632;23.440;2023-10-09T06:19:48;1.88;;;0.65;;
68178;SDS011;69812;42.632;23.440;2023-10-09T06:22:14;0.95;;;0.68;;
68178;SDS011;69812;42.632;23.440;2023-10-09T06:25:01;1.58;;;0.63;;
68178;SDS011;69812;42.632;23.440;2023-10-09T06:27:34;2.17;;;0.70;;
68178;SDS011;69812;42.632;23.440;2023-10-09T06:29:59;1.95;;;0.70;;
68178;SDS011;69812;42.632;23.440;2023-10-09T06:32:43;3.97;;;0.77;;
68178;SDS011;69812;42.632;23.440;2023-10-09T06:35:44;1.52;;;0.90;;
68178;SDS011;69812;42.632;23.440;2023-10-09T06:38:21;1.92;;;0.70;;
68178;SDS011;69812;42.632;23.440;2023-10-09T06:40:58;2.50;;;0.77;;
68178;SDS011;69812;42.632;23.440;2023-10-09T06:43:47;1.50;;;0.73;;
68178;SDS011;69812;42.632;23.440;2023-10-09T06:46:18;1.80;;;0.60;;
68178;SDS011;69812;42.632;23.440;2023-10-09T06:48:51;2.20;;;0.63;;
68178;SDS011;69812;42.632;23.440;2023-10-09T06:51:24;3.33;;;0.88;;
68178;SDS011;69812;42.632;23.440;2023-10-09T06:53:50;1.58;;;0.70;;
68178;SDS011;69812;42.632;23.440;2023-10-09T06:56:19;2.13;;;0.82;;
68178;SDS011;69812;42.632;23.440;2023-10-09T06:59:08;3.78;;;0.90;;
68178;SDS011;69812;42.632;23.440;2023-10-09T07:01:49;1.55;;;0.90;;
68178;SDS011;69812;42.632;23.440;2023-10-09T07:04:35;3.78;;;0.77;;
68178;SDS011;69812;42.632;23.440;2023-10-09T07:07:01;2.47;;;0.70;;
68178;SDS011;69812;42.632;23.440;2023-10-09T07:09:27;1.42;;;0.80;;
68178;SDS011;69812;42.632;23.440;2023-10-09T07:12:08;1.98;;;0.82;;
68178;SDS011;69812;42.632;23.440;2023-10-09T07:14:50;3.15;;;0.80;;
68178;SDS011;69812;42.632;23.440;2023-10-09T07:17:21;1.45;;;0.80;;
68178;SDS011;69812;42.632;23.440;2023-10-09T07:19:59;1.52;;;0.75;;
68178;SDS011;69812;42.632;23.440;2023-10-09T07:22:43;2.67;;;0.95;;
68178;SDS011;69812;42.632;23.440;2023-10-09T07:25:20;3.15;;;0.90;;
68178;SDS011;69812;42.632;23.440;2023-10-09T07:28:04;2.60;;;0.60;;
68178;SDS011;69812;42.632;23.440;2023-10-09T07:30:43;2.38;;;0.85;;
68178;SDS011;69812;42.632;23.440;2023-10-09T07:33:08;1.42;;;0.82;;
68178;SDS011;69812;42.632;23.440;2023-10-09T07:35:37;2.90;;;1.00;;
68178;SDS011;69812;42.632;23.440;2023-10-09T07:38:05;2.03;;;0.95;;
68178;SDS011;69812;42.632;23.440;2023-10-09T07:40:37;3.83;;;1.08;;
68178;SDS011;69812;42.632;23.440;2023-10-09T07:43:22;2.38;;;0.73;;
68178;SDS011;69812;42.632;23.440;2023-10-09T07:45:54;1.52;;;0.73;;
68178;SDS011;69812;42.632;23.440;2023-10-09T07:48:23;1.77;;;0.82;;
68178;SDS011;69812;42.632;23.440;2023-10-09T07:51:03;2.10;;;0.90;;
68178;SDS011;69812;42.632;23.440;2023-10-09T07:53:37;2.00;;;0.90;;
68178;SDS011;69812;42.632;23.440;2023-10-09T07:56:09;1.92;;;0.95;;
68178;SDS011;69812;42.632;23.440;2023-10-09T07:58:35;3.53;;;0.90;;
68178;SDS011;69812;42.632;23.440;2023-10-09T08:01:20;3.10;;;0.80;;
68178;SDS011;69812;42.632;23.440;2023-10-09T08:06:37;2.72;;;0.68;;
68178;SDS011;69812;42.632;23.440;2023-10-09T08:09:04;2.53;;;0.93;;
68178;SDS011;69812;42.632;23.440;2023-10-09T08:11:40;2.40;;;0.85;;
68178;SDS011;69812;42.632;23.440;2023-10-09T08:14:12;2.85;;;0.95;;
68178;SDS011;69812;42.632;23.440;2023-10-09T08:16:57;2.40;;;0.80;;
68178;SDS011;69812;42.632;23.440;2023-10-09T08:19:42;1.40;;;0.68;;
68178;SDS011;69812;42.632;23.440;2023-10-09T08:22:22;2.05;;;0.93;;
68178;SDS011;69812;42.632;23.440;2023-10-09T08:24:51;1.40;;;0.77;;
68178;SDS011;69812;42.632;23.440;2023-10-09T08:30:01;1.90;;;0.80;;
68178;SDS011;69812;42.632;23.440;2023-10-09T08:32:45;1.73;;;0.80;;
68178;SDS011;69812;42.632;23.440;2023-10-09T08:35:30;2.42;;;1.00;;
68178;SDS011;69812;42.632;23.440;2023-10-09T08:38:00;1.23;;;0.80;;
68178;SDS011;69812;42.632;23.440;2023-10-09T08:40:41;2.50;;;1.10;;
68178;SDS011;69812;42.632;23.440;2023-10-09T08:43:17;1.85;;;0.90;;
68178;SDS011;69812;42.632;23.440;2023-10-09T08:48:16;2.85;;;0.80;;
68178;SDS011;69812;42.632;23.440;2023-10-09T08:50:46;1.58;;;0.80;;
68178;SDS011;69812;42.632;23.440;2023-10-09T08:53:15;3.03;;;0.80;;
68178;SDS011;69812;42.632;23.440;2023-10-09T09:00:42;3.55;;;0.68;;
68178;SDS011;69812;42.632;23.440;2023-10-09T09:03:10;2.30;;;0.80;;
68178;SDS011;69812;42.632;23.440;2023-10-09T09:05:37;1.77;;;0.80;;
68178;SDS011;69812;42.632;23.440;2023-10-09T09:08:03;1.50;;;0.70;;
68178;SDS011;69812;42.632;23.440;2023-10-09T09:10:29;2.63;;;0.90;;
68178;SDS011;69812;42.632;23.440;2023-10-09T09:13:02;3.47;;;0.90;;
68178;SDS011;69812;42.632;23.440;2023-10-09T09:15:29;1.67;;;0.68;;
68178;SDS011;69812;42.632;23.440;2023-10-09T09:18:05;1.40;;;0.95;;
68178;SDS011;69812;42.632;23.440;2023-10-09T09:20:32;3.38;;;0.88;;
68178;SDS011;69812;42.632;23.440;2023-10-09T09:23:10;3.50;;;0.75;;
68178;SDS011;69812;42.632;23.440;2023-10-09T09:25:44;2.83;;;0.85;;
68178;SDS011;69812;42.632;23.440;2023-10-09T09:28:11;3.60;;;0.90;;
68178;SDS011;69812;42.632;23.440;2023-10-09T09:30:38;1.90;;;0.82;;
68178;SDS011;69812;42.632;23.440;2023-10-09T09:33:24;1.00;;;0.60;;
68178;SDS011;69812;42.632;23.440;2023-10-09T09:36:06;3.92;;;0.82;;
68178;SDS011;69812;42.632;23.440;2023-10-09T09:38:35;1.58;;;0.60;;
68178;SDS011;69812;42.632;23.440;2023-10-09T09:41:13;1.08;;;0.60;;
68178;SDS011;69812;42.632;23.440;2023-10-09T09:43:56;2.33;;;0.65;;
68178;SDS011;69812;42.632;23.440;2023-10-09T09:46:28;6.78;;;0.98;;
68178;SDS011;69812;42.632;23.440;2023-10-09T09:49:02;1.70;;;0.77;;
68178;SDS011;69812;42.632;23.440;2023-10-09T09:51:31;3.83;;;1.00;;
68178;SDS011;69812;42.632;23.440;2023-10-09T09:53:57;1.77;;;0.70;;
68178;SDS011;69812;42.632;23.440;2023-10-09T09:56:24;1.38;;;0.50;;
68178;SDS011;69812;42.632;23.440;2023-10-09T09:58:50;3.03;;;0.93;;
68178;SDS011;69812;42.632;23.440;2023-10-09T10:01:20;1.85;;;0.88;;
68178;SDS011;69812;42.632;23.440;2023-10-09T10:04:16;2.67;;;0.75;;
68178;SDS011;69812;42.632;23.440;2023-10-09T10:06:45;1.23;;;1.00;;
68178;SDS011;69812;42.632;23.440;2023-10-09T10:13:01;4.18;;;0.90;;
68178;SDS011;69812;42.632;23.440;2023-10-09T10:15:25;2.67;;;1.00;;
68178;SDS011;69812;42.632;23.440;2023-10-09T10:18:51;2.67;;;1.10;;
68178;SDS011;69812;42.632;23.440;2023-10-09T10:21:17;3.50;;;0.90;;
68178;SDS011;69812;42.632;23.440;2023-10-09T10:23:43;4.43;;;0.98;;
68178;SDS011;69812;42.632;23.440;2023-10-09T10:26:21;2.50;;;0.70;;
68178;SDS011;69812;42.632;23.440;2023-10-09T10:32:01;2.92;;;1.00;;
68178;SDS011;69812;42.632;23.440;2023-10-09T10:37:21;6.60;;;0.80;;
68178;SDS011;69812;42.632;23.440;2023-10-09T10:42:24;1.48;;;0.70;;
68178;SDS011;69812;42.632;23.440;2023-10-09T10:45:02;3.60;;;0.90;;
68178;SDS011;69812;42.632;23.440;2023-10-09T10:47:40;1.83;;;0.80;;
68178;SDS011;69812;42.632;23.440;2023-10-09T10:50:07;3.63;;;0.80;;
68178;SDS011;69812;42.632;23.440;2023-10-09T10:52:52;1.75;;;0.90;;
68178;SDS011;69812;42.632;23.440;2023-10-09T10:55:22;2.15;;;0.90;;
68178;SDS011;69812;42.632;23.440;2023-10-09T10:57:51;1.92;;;1.05;;
68178;SDS011;69812;42.632;23.440;2023-10-09T11:00:27;5.18;;;1.23;;
68178;SDS011;69812;42.632;23.440;2023-10-09T11:03:18;3.15;;;0.88;;
68178;SDS011;69812;42.632;23.440;2023-10-09T11:05:48;2.75;;;1.13;;
68178;SDS011;69812;42.632;23.440;2023-10-09T11:08:23;2.90;;;1.10;;
68178;SDS011;69812;42.632;23.440;2023-10-09T11:10:52;1.25;;;0.73;;
68178;SDS011;69812;42.632;23.440;2023-10-09T11:13:25;2.53;;;0.90;;
68178;SDS011;69812;42.632;23.440;2023-10-09T11:16:17;2.20;;;0.95;;
68178;SDS011;69812;42.632;23.440;2023-10-09T11:19:21;2.67;;;0.70;;
68178;SDS011;69812;42.632;23.440;2023-10-09T11:21:53;2.40;;;0.98;;
68178;SDS011;69812;42.632;23.440;2023-10-09T11:24:29;2.38;;;1.00;;
68178;SDS011;69812;42.632;23.440;2023-10-09T11:27:03;2.90;;;1.02;;
68178;SDS011;69812;42.632;23.440;2023-10-09T11:29:31;4.53;;;1.10;;
68178;SDS011;69812;42.632;23.440;2023-10-09T11:32:19;2.35;;;1.20;;
68178;SDS011;69812;42.632;23.440;2023-10-09T11:34:49;1.80;;;1.00;;
68178;SDS011;69812;42.632;23.440;2023-10-09T11:37:22;2.17;;;0.90;;
68178;SDS011;69812;42.632;23.440;2023-10-09T11:39:54;3.92;;;1.05;;
68178;SDS011;69812;42.632;23.440;2023-10-09T11:42:21;1.90;;;1.05;;
68178;SDS011;69812;42.632;23.440;2023-10-09T11:45:34;2.50;;;1.00;;
68178;SDS011;69812;42.632;23.440;2023-10-09T11:48:16;4.60;;;1.02;;
68178;SDS011;69812;42.632;23.440;2023-10-09T11:50:59;2.45;;;0.90;;
68178;SDS011;69812;42.632;23.440;2023-10-09T11:53:45;2.67;;;1.63;;
68178;SDS011;69812;42.632;23.440;2023-10-09T11:56:14;4.07;;;1.33;;
68178;SDS011;69812;42.632;23.440;2023-10-09T11:58:42;2.65;;;1.48;;
68178;SDS011;69812;42.632;23.440;2023-10-09T12:01:14;4.15;;;1.73;;
68178;SDS011;69812;42.632;23.440;2023-10-09T12:03:48;4.70;;;2.03;;
68178;SDS011;69812;42.632;23.440;2023-10-09T12:06:17;4.15;;;1.70;;
68178;SDS011;69812;42.632;23.440;2023-10-09T12:08:57;4.00;;;2.50;;
68178;SDS011;69812;42.632;23.440;2023-10-09T12:11:26;6.03;;;2.78;;
68178;SDS011;69812;42.632;23.440;2023-10-09T12:13:56;5.63;;;2.33;;
68178;SDS011;69812;42.632;23.440;2023-10-09T12:16:24;5.32;;;2.03;;
68178;SDS011;69812;42.632;23.440;2023-10-09T12:18:56;5.10;;;2.13;;
68178;SDS011;69812;42.632;23.440;2023-10-09T12:21:22;3.15;;;1.58;;
68178;SDS011;69812;42.632;23.440;2023-10-09T12:23:53;4.95;;;1.50;;
68178;SDS011;69812;42.632;23.440;2023-10-09T12:26:22;4.32;;;1.50;;
68178;SDS011;69812;42.632;23.440;2023-10-09T12:28:48;4.25;;;1.73;;
68178;SDS011;69812;42.632;23.440;2023-10-09T12:31:15;4.93;;;2.13;;
68178;SDS011;69812;42.632;23.440;2023-10-09T12:33:44;5.13;;;1.67;;
68178;SDS011;69812;42.632;23.440;2023-10-09T12:36:12;4.78;;;1.48;;
68178;SDS011;69812;42.632;23.440;2023-10-09T12:38:44;4.32;;;1.70;;
68178;SDS011;69812;42.632;23.440;2023-10-09T12:41:15;5.40;;;1.55;;
68178;SDS011;69812;42.632;23.440;2023-10-09T12:43:50;7.15;;;1.80;;
68178;SDS011;69812;42.632;23.440;2023-10-09T12:46:19;3.08;;;1.55;;
68178;SDS011;69812;42.632;23.440;2023-10-09T12:48:48;2.25;;;1.27;;
68178;SDS011;69812;42.632;23.440;2023-10-09T12:51:18;2.60;;;1.55;;
68178;SDS011;69812;42.632;23.440;2023-10-09T12:53:50;4.10;;;1.85;;
68178;SDS011;69812;42.632;23.440;2023-10-09T12:56:22;4.63;;;1.50;;
68178;SDS011;69812;42.632;23.440;2023-10-09T12:58:57;2.85;;;1.33;;
68178;SDS011;69812;42.632;23.440;2023-10-09T13:01:27;2.97;;;1.30;;
68178;SDS011;69812;42.632;23.440;2023-10-09T13:04:08;3.60;;;1.10;;
68178;SDS011;69812;42.632;23.440;2023-10-09T13:06:37;4.25;;;1.83;;
68178;SDS011;69812;42.632;23.440;2023-10-09T13:09:09;2.35;;;1.35;;
68178;SDS011;69812;42.632;23.440;2023-10-09T13:11:35;2.92;;;1.00;;
68178;SDS011;69812;42.632;23.440;2023-10-09T13:14:02;3.47;;;1.40;;
68178;SDS011;69812;42.632;23.440;2023-10-09T13:16:36;2.75;;;1.10;;
68178;SDS011;69812;42.632;23.440;2023-10-09T13:19:06;3.40;;;1.00;;
68178;SDS011;69812;42.632;23.440;2023-10-09T13:21:35;2.20;;;1.20;;
68178;SDS011;69812;42.632;23.440;2023-10-09T13:24:05;1.67;;;0.93;;
68178;SDS011;69812;42.632;23.440;2023-10-09T13:26:37;2.75;;;1.40;;
68178;SDS011;69812;42.632;23.440;2023-10-09T13:29:03;3.92;;;1.20;;
68178;SDS011;69812;42.632;23.440;2023-10-09T13:31:29;4.55;;;1.50;;
68178;SDS011;69812;42.632;23.440;2023-10-09T13:33:59;3.45;;;1.40;;
68178;SDS011;69812;42.632;23.440;2023-10-09T13:36:26;3.38;;;1.30;;
68178;SDS011;69812;42.632;23.440;2023-10-09T13:38:54;4.20;;;1.20;;
68178;SDS011;69812;42.632;23.440;2023-10-09T13:41:20;4.05;;;1.30;;
68178;SDS011;69812;42.632;23.440;2023-10-09T13:43:46;2.90;;;1.20;;
68178;SDS011;69812;42.632;23.440;2023-10-09T13:46:11;4.50;;;0.75;;
68178;SDS011;69812;42.632;23.440;2023-10-09T13:48:42;2.55;;;1.05;;
68178;SDS011;69812;42.632;23.440;2023-10-09T13:51:11;2.85;;;0.90;;
68178;SDS011;69812;42.632;23.440;2023-10-09T13:53:44;2.45;;;0.98;;
68178;SDS011;69812;42.632;23.440;2023-10-09T13:56:13;2.45;;;1.10;;
68178;SDS011;69812;42.632;23.440;2023-10-09T13:58:50;2.88;;;1.13;;
68178;SDS011;69812;42.632;23.440;2023-10-09T14:01:16;2.67;;;1.02;;
68178;SDS011;69812;42.632;23.440;2023-10-09T14:03:59;5.65;;;1.20;;
68178;SDS011;69812;42.632;23.440;2023-10-09T14:06:25;1.63;;;1.00;;
68178;SDS011;69812;42.632;23.440;2023-10-09T14:09:03;3.15;;;1.50;;
68178;SDS011;69812;42.632;23.440;2023-10-09T14:11:33;4.22;;;1.58;;
68178;SDS011;69812;42.632;23.440;2023-10-09T14:14:05;3.63;;;1.70;;
68178;SDS011;69812;42.632;23.440;2023-10-09T14:16:37;3.95;;;1.70;;
68178;SDS011;69812;42.632;23.440;2023-10-09T14:19:08;4.75;;;1.45;;
68178;SDS011;69812;42.632;23.440;2023-10-09T14:21:38;3.08;;;1.30;;
68178;SDS011;69812;42.632;23.440;2023-10-09T14:24:05;4.07;;;1.33;;
68178;SDS011;69812;42.632;23.440;2023-10-09T14:26:41;3.58;;;1.17;;
68178;SDS011;69812;42.632;23.440;2023-10-09T14:29:07;5.28;;;2.20;;
68178;SDS011;69812;42.632;23.440;2023-10-09T14:31:34;4.45;;;1.85;;
68178;SDS011;69812;42.632;23.440;2023-10-09T14:34:04;2.83;;;1.30;;
68178;SDS011;69812;42.632;23.440;2023-10-09T14:36:30;4.38;;;1.50;;
68178;SDS011;69812;42.632;23.440;2023-10-09T14:38:59;4.43;;;2.20;;
68178;SDS011;69812;42.632;23.440;2023-10-09T14:41:29;6.18;;;2.75;;
68178;SDS011;69812;42.632;23.440;2023-10-09T14:43:59;5.25;;;2.35;;
68178;SDS011;69812;42.632;23.440;2023-10-09T14:46:25;5.05;;;1.40;;
68178;SDS011;69812;42.632;23.440;2023-10-09T14:48:53;4.68;;;1.70;;
68178;SDS011;69812;42.632;23.440;2023-10-09T14:51:21;6.13;;;1.60;;
68178;SDS011;69812;42.632;23.440;2023-10-09T14:53:58;5.78;;;1.15;;
68178;SDS011;69812;42.632;23.440;2023-10-09T14:56:25;4.00;;;1.45;;
68178;SDS011;69812;42.632;23.440;2023-10-09T14:58:57;4.78;;;1.20;;
68178;SDS011;69812;42.632;23.440;2023-10-09T15:01:24;3.42;;;1.55;;
68178;SDS011;69812;42.632;23.440;2023-10-09T15:03:59;4.47;;;1.50;;
68178;SDS011;69812;42.632;23.440;2023-10-09T15:06:28;4.57;;;1.50;;
68178;SDS011;69812;42.632;23.440;2023-10-09T15:08:55;3.97;;;1.50;;
68178;SDS011;69812;42.632;23.440;2023-10-09T15:11:33;3.38;;;1.42;;
68178;SDS011;69812;42.632;23.440;2023-10-09T15:13:58;4.18;;;1.52;;
68178;SDS011;69812;42.632;23.440;2023-10-09T15:16:24;5.03;;;2.03;;
68178;SDS011;69812;42.632;23.440;2023-10-09T15:18:55;4.88;;;1.55;;
68178;SDS011;69812;42.632;23.440;2023-10-09T15:21:22;5.13;;;1.48;;
68178;SDS011;69812;42.632;23.440;2023-10-09T15:23:52;4.38;;;1.40;;
68178;SDS011;69812;42.632;23.440;2023-10-09T15:26:19;6.40;;;1.75;;
68178;SDS011;69812;42.632;23.440;2023-10-09T15:28:46;5.70;;;1.70;;
68178;SDS011;69812;42.632;23.440;2023-10-09T15:31:14;7.35;;;1.52;;
68178;SDS011;69812;42.632;23.440;2023-10-09T15:33:41;10.70;;;1.60;;
68178;SDS011;69812;42.632;23.440;2023-10-09T15:36:14;4.13;;;2.00;;
68178;SDS011;69812;42.632;23.440;2023-10-09T15:38:45;5.28;;;1.73;;
68178;SDS011;69812;42.632;23.440;2023-10-09T15:41:12;4.30;;;1.50;;
68178;SDS011;69812;42.632;23.440;2023-10-09T15:43:40;5.65;;;1.70;;